sensor_id;sensor_type;location;lat;lon;timestamp;temperature;humidity
8711;DHT22;4392;47.400;8.062;2024-03-02T00:01:44;11.40;99.90
8711;DHT22;4392;47.400;8.062;2024-03-02T00:04:09;11.30;99.90
8711;DHT22;4392;47.400;8.062;2024-03-02T00:06:35;11.10;99.90
8711;DHT22;4392;47.400;8.062;2024-03-02T00:09:01;11.60;99.90
8711;DHT22;4392;47.400;8.062;2024-03-02T00:11:27;11.10;99.90
8711;DHT22;4392;47.400;8.062;2024-03-02T00:13:53;10.60;99.90
8711;DHT22;4392;47.400;8.062;2024-03-02T00:16:19;10.30;99.90
8711;DHT22;4392;47.400;8.062;2024-03-02T00:18:45;10.10;99.90
8711;DHT22;4392;47.400;8.062;2024-03-02T00:21:12;10.00;99.90
8711;DHT22;4392;47.400;8.062;2024-03-02T00:23:40;10.00;99.90
8711;DHT22;4392;47.400;8.062;2024-03-02T00:26:05;10.00;99.90
8711;DHT22;4392;47.400;8.062;2024-03-02T00:28:35;10.00;99.90
8711;DHT22;4392;47.400;8.062;2024-03-02T00:31:06;9.90;99.90
8711;DHT22;4392;47.400;8.062;2024-03-02T00:33:37;9.90;99.90
8711;DHT22;4392;47.400;8.062;2024-03-02T00:36:03;9.90;99.90
8711;DHT22;4392;47.400;8.062;2024-03-02T00:38:33;9.90;99.90
8711;DHT22;4392;47.400;8.062;2024-03-02T00:41:03;9.80;99.90
8711;DHT22;4392;47.400;8.062;2024-03-02T00:45:58;9.70;99.90
8711;DHT22;4392;47.400;8.062;2024-03-02T00:48:23;9.50;99.90
8711;DHT22;4392;47.400;8.062;2024-03-02T00:50:52;9.60;99.90
8711;DHT22;4392;47.400;8.062;2024-03-02T00:53:22;9.60;99.90
8711;DHT22;4392;47.400;8.062;2024-03-02T00:55:53;9.70;99.90
8711;DHT22;4392;47.400;8.062;2024-03-02T00:58:18;10.30;99.90
8711;DHT22;4392;47.400;8.062;2024-03-02T01:00:46;10.10;99.90
8711;DHT22;4392;47.400;8.062;2024-03-02T01:03:12;9.90;99.90
8711;DHT22;4392;47.400;8.062;2024-03-02T01:05:42;9.80;99.90
8711;DHT22;4392;47.400;8.062;2024-03-02T01:08:09;9.80;99.90
8711;DHT22;4392;47.400;8.062;2024-03-02T01:10:34;9.80;99.90
8711;DHT22;4392;47.400;8.062;2024-03-02T01:13:00;9.70;99.90
8711;DHT22;4392;47.400;8.062;2024-03-02T01:15:28;9.80;99.90
8711;DHT22;4392;47.400;8.062;2024-03-02T01:17:54;11.50;99.90
8711;DHT22;4392;47.400;8.062;2024-03-02T01:20:19;11.50;99.90
8711;DHT22;4392;47.400;8.062;2024-03-02T01:22:45;10.90;99.90
8711;DHT22;4392;47.400;8.062;2024-03-02T01:25:11;10.50;99.90
8711;DHT22;4392;47.400;8.062;2024-03-02T01:27:36;10.30;99.90
8711;DHT22;4392;47.400;8.062;2024-03-02T01:30:02;10.20;99.90
8711;DHT22;4392;47.400;8.062;2024-03-02T01:32:27;10.00;99.90
8711;DHT22;4392;47.400;8.062;2024-03-02T01:34:53;9.90;99.90
8711;DHT22;4392;47.400;8.062;2024-03-02T01:37:19;9.90;99.90
8711;DHT22;4392;47.400;8.062;2024-03-02T01:39:44;9.90;99.90
8711;DHT22;4392;47.400;8.062;2024-03-02T01:42:10;9.80;99.90
8711;DHT22;4392;47.400;8.062;2024-03-02T01:44:36;10.60;99.90
8711;DHT22;4392;47.400;8.062;2024-03-02T01:47:02;11.10;99.90
8711;DHT22;4392;47.400;8.062;2024-03-02T01:49:27;10.60;99.90
8711;DHT22;4392;47.400;8.062;2024-03-02T01:51:53;10.40;99.90
8711;DHT22;4392;47.400;8.062;2024-03-02T01:54:19;10.10;99.90
8711;DHT22;4392;47.400;8.062;2024-03-02T01:56:47;10.00;99.90
8711;DHT22;4392;47.400;8.062;2024-03-02T01:59:13;10.00;99.90
8711;DHT22;4392;47.400;8.062;2024-03-02T02:01:39;11.30;99.90
8711;DHT22;4392;47.400;8.062;2024-03-02T02:04:04;12.20;99.90
8711;DHT22;4392;47.400;8.062;2024-03-02T02:06:32;12.70;99.90
8711;DHT22;4392;47.400;8.062;2024-03-02T02:08:57;12.80;99.90
8711;DHT22;4392;47.400;8.062;2024-03-02T02:11:23;13.00;99.90
8711;DHT22;4392;47.400;8.062;2024-03-02T02:13:49;13.10;99.90
8711;DHT22;4392;47.400;8.062;2024-03-02T02:16:15;13.20;99.90
8711;DHT22;4392;47.400;8.062;2024-03-02T02:18:41;13.20;99.90
8711;DHT22;4392;47.400;8.062;2024-03-02T02:21:09;13.30;99.90
8711;DHT22;4392;47.400;8.062;2024-03-02T02:23:34;13.30;99.90
8711;DHT22;4392;47.400;8.062;2024-03-02T02:26:00;13.40;98.90
8711;DHT22;4392;47.400;8.062;2024-03-02T02:28:28;12.60;95.40
8711;DHT22;4392;47.400;8.062;2024-03-02T02:30:56;11.90;96.60
8711;DHT22;4392;47.400;8.062;2024-03-02T02:33:22;11.40;97.60
8711;DHT22;4392;47.400;8.062;2024-03-02T02:35:47;11.00;98.80
8711;DHT22;4392;47.400;8.062;2024-03-02T02:38:13;10.80;99.50
8711;DHT22;4392;47.400;8.062;2024-03-02T02:40:38;10.70;99.90
8711;DHT22;4392;47.400;8.062;2024-03-02T02:43:04;10.50;99.90
8711;DHT22;4392;47.400;8.062;2024-03-02T02:45:29;10.40;99.90
8711;DHT22;4392;47.400;8.062;2024-03-02T02:47:55;11.50;99.90
8711;DHT22;4392;47.400;8.062;2024-03-02T02:50:21;11.20;99.90
8711;DHT22;4392;47.400;8.062;2024-03-02T02:52:46;10.80;99.90
8711;DHT22;4392;47.400;8.062;2024-03-02T02:55:13;10.50;99.90
8711;DHT22;4392;47.400;8.062;2024-03-02T02:57:41;10.40;99.90
8711;DHT22;4392;47.400;8.062;2024-03-02T03:00:14;10.20;99.90
8711;DHT22;4392;47.400;8.062;2024-03-02T03:02:41;10.10;99.90
8711;DHT22;4392;47.400;8.062;2024-03-02T03:05:11;10.00;99.90
8711;DHT22;4392;47.400;8.062;2024-03-02T03:07:37;9.90;99.90
8711;DHT22;4392;47.400;8.062;2024-03-02T03:10:05;9.80;99.90
8711;DHT22;4392;47.400;8.062;2024-03-02T03:12:32;9.90;99.90
8711;DHT22;4392;47.400;8.062;2024-03-02T03:14:58;9.80;99.90
8711;DHT22;4392;47.400;8.062;2024-03-02T03:17:23;9.80;99.90
8711;DHT22;4392;47.400;8.062;2024-03-02T03:19:50;9.80;99.90
8711;DHT22;4392;47.400;8.062;2024-03-02T03:22:16;9.80;99.90
8711;DHT22;4392;47.400;8.062;2024-03-02T03:24:42;9.80;99.90
8711;DHT22;4392;47.400;8.062;2024-03-02T03:27:07;9.80;99.90
8711;DHT22;4392;47.400;8.062;2024-03-02T03:29:33;9.70;99.90
8711;DHT22;4392;47.400;8.062;2024-03-02T03:31:58;9.70;99.90
8711;DHT22;4392;47.400;8.062;2024-03-02T03:34:24;9.60;99.90
8711;DHT22;4392;47.400;8.062;2024-03-02T03:36:49;9.60;99.90
8711;DHT22;4392;47.400;8.062;2024-03-02T03:39:15;10.80;99.90
8711;DHT22;4392;47.400;8.062;2024-03-02T03:41:41;10.90;99.90
8711;DHT22;4392;47.400;8.062;2024-03-02T03:44:07;10.40;99.90
8711;DHT22;4392;47.400;8.062;2024-03-02T03:46:32;10.10;99.90
8711;DHT22;4392;47.400;8.062;2024-03-02T03:48:58;9.80;99.90
8711;DHT22;4392;47.400;8.062;2024-03-02T03:51:23;9.80;99.90
8711;DHT22;4392;47.400;8.062;2024-03-02T03:53:49;9.60;99.90
8711;DHT22;4392;47.400;8.062;2024-03-02T03:56:15;9.60;99.90
8711;DHT22;4392;47.400;8.062;2024-03-02T03:58:40;9.50;99.90
8711;DHT22;4392;47.400;8.062;2024-03-02T04:01:06;9.30;99.90
8711;DHT22;4392;47.400;8.062;2024-03-02T04:03:31;9.20;99.90
8711;DHT22;4392;47.400;8.062;2024-03-02T04:05:57;9.30;99.90
8711;DHT22;4392;47.400;8.062;2024-03-02T04:08:23;9.20;99.90
8711;DHT22;4392;47.400;8.062;2024-03-02T04:10:48;9.20;99.90
8711;DHT22;4392;47.400;8.062;2024-03-02T04:13:14;9.20;99.90
8711;DHT22;4392;47.400;8.062;2024-03-02T04:15:40;9.20;99.90
8711;DHT22;4392;47.400;8.062;2024-03-02T04:18:08;9.20;99.90
8711;DHT22;4392;47.400;8.062;2024-03-02T04:20:34;9.20;99.90
8711;DHT22;4392;47.400;8.062;2024-03-02T04:22:59;9.20;99.90
8711;DHT22;4392;47.400;8.062;2024-03-02T04:25:25;10.10;99.90
8711;DHT22;4392;47.400;8.062;2024-03-02T04:27:50;11.60;99.90
8711;DHT22;4392;47.400;8.062;2024-03-02T04:30:16;10.90;99.90
8711;DHT22;4392;47.400;8.062;2024-03-02T04:32:42;10.20;99.90
8711;DHT22;4392;47.400;8.062;2024-03-02T04:35:11;9.90;99.90
8711;DHT22;4392;47.400;8.062;2024-03-02T04:37:38;9.70;99.90
8711;DHT22;4392;47.400;8.062;2024-03-02T04:40:04;9.50;99.90
8711;DHT22;4392;47.400;8.062;2024-03-02T04:42:33;9.40;99.90
8711;DHT22;4392;47.400;8.062;2024-03-02T04:44:59;9.40;99.90
8711;DHT22;4392;47.400;8.062;2024-03-02T04:47:25;9.40;99.90
8711;DHT22;4392;47.400;8.062;2024-03-02T04:49:53;9.40;99.90
8711;DHT22;4392;47.400;8.062;2024-03-02T04:52:19;9.40;99.90
8711;DHT22;4392;47.400;8.062;2024-03-02T04:54:45;9.30;99.90
8711;DHT22;4392;47.400;8.062;2024-03-02T04:57:29;9.30;99.90
8711;DHT22;4392;47.400;8.062;2024-03-02T04:59:54;9.30;99.90
8711;DHT22;4392;47.400;8.062;2024-03-02T05:02:20;9.30;99.90
8711;DHT22;4392;47.400;8.062;2024-03-02T05:04:45;9.30;99.90
8711;DHT22;4392;47.400;8.062;2024-03-02T05:07:11;9.20;99.90
8711;DHT22;4392;47.400;8.062;2024-03-02T05:09:37;9.20;99.90
8711;DHT22;4392;47.400;8.062;2024-03-02T05:12:02;9.20;99.90
8711;DHT22;4392;47.400;8.062;2024-03-02T05:14:42;9.20;99.90
8711;DHT22;4392;47.400;8.062;2024-03-02T05:17:08;9.20;99.90
8711;DHT22;4392;47.400;8.062;2024-03-02T05:19:33;9.20;99.90
8711;DHT22;4392;47.400;8.062;2024-03-02T05:22:02;9.10;99.90
8711;DHT22;4392;47.400;8.062;2024-03-02T05:24:28;9.10;99.90
8711;DHT22;4392;47.400;8.062;2024-03-02T05:26:54;9.00;99.90
8711;DHT22;4392;47.400;8.062;2024-03-02T05:29:20;9.20;99.90
8711;DHT22;4392;47.400;8.062;2024-03-02T05:31:46;9.20;99.90
8711;DHT22;4392;47.400;8.062;2024-03-02T05:34:12;9.10;99.90
8711;DHT22;4392;47.400;8.062;2024-03-02T05:36:37;9.10;99.90
8711;DHT22;4392;47.400;8.062;2024-03-02T05:39:04;9.10;99.90
8711;DHT22;4392;47.400;8.062;2024-03-02T05:41:31;9.10;99.90
8711;DHT22;4392;47.400;8.062;2024-03-02T05:43:57;9.10;99.90
8711;DHT22;4392;47.400;8.062;2024-03-02T05:46:23;9.00;99.90
8711;DHT22;4392;47.400;8.062;2024-03-02T05:48:48;9.00;99.90
8711;DHT22;4392;47.400;8.062;2024-03-02T05:51:14;9.00;99.90
8711;DHT22;4392;47.400;8.062;2024-03-02T05:53:39;9.00;99.90
8711;DHT22;4392;47.400;8.062;2024-03-02T05:56:05;9.00;99.90
8711;DHT22;4392;47.400;8.062;2024-03-02T05:58:31;9.00;99.90
8711;DHT22;4392;47.400;8.062;2024-03-02T06:01:15;9.70;99.90
8711;DHT22;4392;47.400;8.062;2024-03-02T06:03:43;10.10;99.90
8711;DHT22;4392;47.400;8.062;2024-03-02T06:06:09;9.70;99.90
8711;DHT22;4392;47.400;8.062;2024-03-02T06:08:34;9.40;99.90
8711;DHT22;4392;47.400;8.062;2024-03-02T06:11:00;9.30;99.90
8711;DHT22;4392;47.400;8.062;2024-03-02T06:13:26;9.10;99.90
8711;DHT22;4392;47.400;8.062;2024-03-02T06:15:52;9.00;99.90
8711;DHT22;4392;47.400;8.062;2024-03-02T06:18:18;9.00;99.90
8711;DHT22;4392;47.400;8.062;2024-03-02T06:20:43;9.00;99.90
8711;DHT22;4392;47.400;8.062;2024-03-02T06:23:09;9.00;99.90
8711;DHT22;4392;47.400;8.062;2024-03-02T06:25:35;8.90;99.90
8711;DHT22;4392;47.400;8.062;2024-03-02T06:28:01;8.90;99.90
8711;DHT22;4392;47.400;8.062;2024-03-02T06:30:26;9.00;99.90
8711;DHT22;4392;47.400;8.062;2024-03-02T06:32:52;8.90;99.90
8711;DHT22;4392;47.400;8.062;2024-03-02T06:35:17;8.80;99.90
8711;DHT22;4392;47.400;8.062;2024-03-02T06:37:43;8.70;99.90
8711;DHT22;4392;47.400;8.062;2024-03-02T06:40:09;8.80;99.90
8711;DHT22;4392;47.400;8.062;2024-03-02T06:42:35;8.80;99.90
8711;DHT22;4392;47.400;8.062;2024-03-02T06:45:02;8.80;99.90
8711;DHT22;4392;47.400;8.062;2024-03-02T06:47:28;8.80;99.90
8711;DHT22;4392;47.400;8.062;2024-03-02T06:49:53;8.90;99.90
8711;DHT22;4392;47.400;8.062;2024-03-02T06:52:19;8.90;99.90
8711;DHT22;4392;47.400;8.062;2024-03-02T06:54:46;8.90;99.90
8711;DHT22;4392;47.400;8.062;2024-03-02T06:57:12;8.90;99.90
8711;DHT22;4392;47.400;8.062;2024-03-02T06:59:37;8.90;99.90
8711;DHT22;4392;47.400;8.062;2024-03-02T07:02:03;9.00;99.90
8711;DHT22;4392;47.400;8.062;2024-03-02T07:04:29;9.00;99.90
8711;DHT22;4392;47.400;8.062;2024-03-02T07:06:54;9.10;99.90
8711;DHT22;4392;47.400;8.062;2024-03-02T07:09:20;9.20;99.90
8711;DHT22;4392;47.400;8.062;2024-03-02T07:11:48;9.20;99.90
8711;DHT22;4392;47.400;8.062;2024-03-02T07:14:14;9.20;99.90
8711;DHT22;4392;47.400;8.062;2024-03-02T07:16:42;9.20;99.90
8711;DHT22;4392;47.400;8.062;2024-03-02T07:19:08;9.20;99.90
8711;DHT22;4392;47.400;8.062;2024-03-02T07:21:34;9.20;99.90
8711;DHT22;4392;47.400;8.062;2024-03-02T07:24:02;9.20;99.90
8711;DHT22;4392;47.400;8.062;2024-03-02T07:26:29;9.20;99.90
8711;DHT22;4392;47.400;8.062;2024-03-02T07:28:56;9.10;99.90
8711;DHT22;4392;47.400;8.062;2024-03-02T07:31:22;9.00;99.90
8711;DHT22;4392;47.400;8.062;2024-03-02T07:33:48;9.00;99.90
8711;DHT22;4392;47.400;8.062;2024-03-02T07:36:13;9.00;99.90
8711;DHT22;4392;47.400;8.062;2024-03-02T07:38:39;9.00;99.90
8711;DHT22;4392;47.400;8.062;2024-03-02T07:41:06;9.00;99.90
8711;DHT22;4392;47.400;8.062;2024-03-02T07:43:32;10.70;99.90
8711;DHT22;4392;47.400;8.062;2024-03-02T07:45:58;10.70;99.90
8711;DHT22;4392;47.400;8.062;2024-03-02T07:48:25;10.30;99.90
8711;DHT22;4392;47.400;8.062;2024-03-02T07:50:50;9.90;99.90
8711;DHT22;4392;47.400;8.062;2024-03-02T07:53:16;9.60;99.90
8711;DHT22;4392;47.400;8.062;2024-03-02T07:55:42;9.50;99.90
8711;DHT22;4392;47.400;8.062;2024-03-02T07:58:10;10.70;99.90
8711;DHT22;4392;47.400;8.062;2024-03-02T08:00:39;11.90;99.90
8711;DHT22;4392;47.400;8.062;2024-03-02T08:03:05;11.10;99.90
8711;DHT22;4392;47.400;8.062;2024-03-02T08:05:36;9.80;99.90
8711;DHT22;4392;47.400;8.062;2024-03-02T08:08:02;9.90;99.90
8711;DHT22;4392;47.400;8.062;2024-03-02T08:10:27;9.80;99.90
8711;DHT22;4392;47.400;8.062;2024-03-02T08:12:53;9.90;99.90
8711;DHT22;4392;47.400;8.062;2024-03-02T08:15:19;9.90;99.90
8711;DHT22;4392;47.400;8.062;2024-03-02T08:17:44;9.90;99.90
8711;DHT22;4392;47.400;8.062;2024-03-02T08:20:16;9.80;99.90
8711;DHT22;4392;47.400;8.062;2024-03-02T08:22:42;9.70;99.90
8711;DHT22;4392;47.400;8.062;2024-03-02T08:25:08;9.70;99.90
8711;DHT22;4392;47.400;8.062;2024-03-02T08:27:34;9.60;99.90
8711;DHT22;4392;47.400;8.062;2024-03-02T08:29:59;9.50;99.90
8711;DHT22;4392;47.400;8.062;2024-03-02T08:32:25;9.50;99.90
8711;DHT22;4392;47.400;8.062;2024-03-02T08:34:51;9.50;99.90
8711;DHT22;4392;47.400;8.062;2024-03-02T08:37:16;9.10;99.90
8711;DHT22;4392;47.400;8.062;2024-03-02T08:39:42;8.60;99.90
8711;DHT22;4392;47.400;8.062;2024-03-02T08:42:07;8.90;99.90
8711;DHT22;4392;47.400;8.062;2024-03-02T08:44:35;9.00;99.90
8711;DHT22;4392;47.400;8.062;2024-03-02T08:47:01;8.90;99.90
8711;DHT22;4392;47.400;8.062;2024-03-02T08:49:27;8.80;99.90
8711;DHT22;4392;47.400;8.062;2024-03-02T08:51:52;9.00;99.90
8711;DHT22;4392;47.400;8.062;2024-03-02T08:54:23;9.10;99.90
8711;DHT22;4392;47.400;8.062;2024-03-02T08:56:52;9.20;99.90
8711;DHT22;4392;47.400;8.062;2024-03-02T08:59:17;9.20;99.90
8711;DHT22;4392;47.400;8.062;2024-03-02T09:01:43;9.30;99.90
8711;DHT22;4392;47.400;8.062;2024-03-02T09:04:10;9.30;99.90
8711;DHT22;4392;47.400;8.062;2024-03-02T09:06:36;9.30;99.90
8711;DHT22;4392;47.400;8.062;2024-03-02T09:09:01;9.40;99.90
8711;DHT22;4392;47.400;8.062;2024-03-02T09:11:27;9.20;99.90
8711;DHT22;4392;47.400;8.062;2024-03-02T09:13:53;9.00;99.90
8711;DHT22;4392;47.400;8.062;2024-03-02T09:16:20;9.10;99.90
8711;DHT22;4392;47.400;8.062;2024-03-02T09:18:45;9.30;99.90
8711;DHT22;4392;47.400;8.062;2024-03-02T09:21:11;9.40;99.90
8711;DHT22;4392;47.400;8.062;2024-03-02T09:23:37;9.20;99.90
8711;DHT22;4392;47.400;8.062;2024-03-02T09:26:03;8.90;99.90
8711;DHT22;4392;47.400;8.062;2024-03-02T09:28:29;9.10;99.90
8711;DHT22;4392;47.400;8.062;2024-03-02T09:30:54;9.10;99.90
8711;DHT22;4392;47.400;8.062;2024-03-02T09:33:20;9.20;99.90
8711;DHT22;4392;47.400;8.062;2024-03-02T09:35:46;9.40;99.90
8711;DHT22;4392;47.400;8.062;2024-03-02T09:38:11;9.40;99.90
8711;DHT22;4392;47.400;8.062;2024-03-02T09:40:37;9.50;99.90
8711;DHT22;4392;47.400;8.062;2024-03-02T09:43:07;9.60;99.90
8711;DHT22;4392;47.400;8.062;2024-03-02T09:45:34;9.60;99.90
8711;DHT22;4392;47.400;8.062;2024-03-02T09:48:00;9.60;99.90
8711;DHT22;4392;47.400;8.062;2024-03-02T09:50:28;9.60;99.90
8711;DHT22;4392;47.400;8.062;2024-03-02T09:52:54;9.70;99.90
8711;DHT22;4392;47.400;8.062;2024-03-02T09:55:20;9.70;99.90
8711;DHT22;4392;47.400;8.062;2024-03-02T09:57:46;9.80;99.90
8711;DHT22;4392;47.400;8.062;2024-03-02T10:00:14;9.60;99.90
8711;DHT22;4392;47.400;8.062;2024-03-02T10:02:43;9.70;99.90
8711;DHT22;4392;47.400;8.062;2024-03-02T10:05:10;9.70;99.90
8711;DHT22;4392;47.400;8.062;2024-03-02T10:07:35;9.70;99.90
8711;DHT22;4392;47.400;8.062;2024-03-02T10:10:21;9.70;99.90
8711;DHT22;4392;47.400;8.062;2024-03-02T10:12:47;9.70;99.90
8711;DHT22;4392;47.400;8.062;2024-03-02T10:15:13;9.80;99.90
8711;DHT22;4392;47.400;8.062;2024-03-02T10:17:38;9.80;99.90
8711;DHT22;4392;47.400;8.062;2024-03-02T10:20:23;9.90;99.90
8711;DHT22;4392;47.400;8.062;2024-03-02T10:22:49;9.70;99.90
8711;DHT22;4392;47.400;8.062;2024-03-02T10:25:31;9.80;99.90
8711;DHT22;4392;47.400;8.062;2024-03-02T10:27:58;9.90;99.90
8711;DHT22;4392;47.400;8.062;2024-03-02T10:30:26;9.80;99.90
8711;DHT22;4392;47.400;8.062;2024-03-02T10:32:56;9.60;99.90
8711;DHT22;4392;47.400;8.062;2024-03-02T10:35:24;9.90;99.90
8711;DHT22;4392;47.400;8.062;2024-03-02T10:37:52;10.00;99.90
8711;DHT22;4392;47.400;8.062;2024-03-02T10:40:20;10.00;99.90
8711;DHT22;4392;47.400;8.062;2024-03-02T10:42:47;10.10;99.90
8711;DHT22;4392;47.400;8.062;2024-03-02T10:45:15;10.10;99.90
8711;DHT22;4392;47.400;8.062;2024-03-02T10:47:43;10.10;99.90
8711;DHT22;4392;47.400;8.062;2024-03-02T10:50:09;10.00;99.90
8711;DHT22;4392;47.400;8.062;2024-03-02T10:52:36;10.00;99.90
8711;DHT22;4392;47.400;8.062;2024-03-02T10:55:02;10.10;99.90
8711;DHT22;4392;47.400;8.062;2024-03-02T10:57:36;10.20;99.90
8711;DHT22;4392;47.400;8.062;2024-03-02T11:00:06;10.20;99.90
8711;DHT22;4392;47.400;8.062;2024-03-02T11:02:34;10.20;99.90
8711;DHT22;4392;47.400;8.062;2024-03-02T11:05:05;10.20;99.90
8711;DHT22;4392;47.400;8.062;2024-03-02T11:07:33;10.30;99.90
8711;DHT22;4392;47.400;8.062;2024-03-02T11:10:01;10.40;99.90
8711;DHT22;4392;47.400;8.062;2024-03-02T11:12:39;10.40;99.90
8711;DHT22;4392;47.400;8.062;2024-03-02T11:15:17;10.30;99.90
8711;DHT22;4392;47.400;8.062;2024-03-02T11:17:46;10.20;99.90
8711;DHT22;4392;47.400;8.062;2024-03-02T11:20:12;10.20;99.90
8711;DHT22;4392;47.400;8.062;2024-03-02T11:22:39;10.30;99.90
8711;DHT22;4392;47.400;8.062;2024-03-02T11:25:05;10.40;99.90
8711;DHT22;4392;47.400;8.062;2024-03-02T11:33:02;10.80;99.90
8711;DHT22;4392;47.400;8.062;2024-03-02T11:35:35;10.90;99.90
8711;DHT22;4392;47.400;8.062;2024-03-02T11:38:03;11.00;99.90
8711;DHT22;4392;47.400;8.062;2024-03-02T11:40:29;11.00;99.90
8711;DHT22;4392;47.400;8.062;2024-03-02T11:42:55;11.00;99.90
8711;DHT22;4392;47.400;8.062;2024-03-02T11:45:27;10.90;99.90
8711;DHT22;4392;47.400;8.062;2024-03-02T11:47:59;10.90;99.90
8711;DHT22;4392;47.400;8.062;2024-03-02T11:53:08;11.00;99.90
8711;DHT22;4392;47.400;8.062;2024-03-02T11:55:37;11.10;99.90
8711;DHT22;4392;47.400;8.062;2024-03-02T11:58:04;11.20;99.90
8711;DHT22;4392;47.400;8.062;2024-03-02T12:00:30;11.20;99.90
8711;DHT22;4392;47.400;8.062;2024-03-02T12:03:03;11.20;99.90
8711;DHT22;4392;47.400;8.062;2024-03-02T12:05:30;11.20;99.60
8711;DHT22;4392;47.400;8.062;2024-03-02T12:08:00;11.30;99.10
8711;DHT22;4392;47.400;8.062;2024-03-02T12:10:27;11.30;99.10
8711;DHT22;4392;47.400;8.062;2024-03-02T12:15:30;11.20;98.40
8711;DHT22;4392;47.400;8.062;2024-03-02T12:17:57;11.30;98.70
8711;DHT22;4392;47.400;8.062;2024-03-02T12:20:24;11.40;98.40
8711;DHT22;4392;47.400;8.062;2024-03-02T12:22:54;11.50;98.00
8711;DHT22;4392;47.400;8.062;2024-03-02T12:25:21;11.50;97.60
8711;DHT22;4392;47.400;8.062;2024-03-02T12:27:49;11.50;97.20
8711;DHT22;4392;47.400;8.062;2024-03-02T12:30:16;11.70;99.90
8711;DHT22;4392;47.400;8.062;2024-03-02T12:32:43;12.50;99.90
8711;DHT22;4392;47.400;8.062;2024-03-02T12:35:10;12.50;99.90
8711;DHT22;4392;47.400;8.062;2024-03-02T12:37:48;12.30;97.00
8711;DHT22;4392;47.400;8.062;2024-03-02T12:40:16;12.20;96.70
8711;DHT22;4392;47.400;8.062;2024-03-02T12:42:44;11.90;95.50
8711;DHT22;4392;47.400;8.062;2024-03-02T12:45:11;11.90;96.20
8711;DHT22;4392;47.400;8.062;2024-03-02T12:47:37;12.00;95.50
8711;DHT22;4392;47.400;8.062;2024-03-02T12:50:06;11.80;95.00
8711;DHT22;4392;47.400;8.062;2024-03-02T12:52:32;11.80;95.30
8711;DHT22;4392;47.400;8.062;2024-03-02T12:55:00;11.80;95.70
8711;DHT22;4392;47.400;8.062;2024-03-02T12:57:26;11.90;96.10
8711;DHT22;4392;47.400;8.062;2024-03-02T13:00:03;12.00;95.80
8711;DHT22;4392;47.400;8.062;2024-03-02T13:02:35;11.90;95.30
8711;DHT22;4392;47.400;8.062;2024-03-02T13:05:01;12.10;95.70
8711;DHT22;4392;47.400;8.062;2024-03-02T13:07:27;12.30;94.90
8711;DHT22;4392;47.400;8.062;2024-03-02T13:09:55;12.30;94.80
8711;DHT22;4392;47.400;8.062;2024-03-02T13:12:22;12.40;94.20
8711;DHT22;4392;47.400;8.062;2024-03-02T13:14:54;12.30;94.60
8711;DHT22;4392;47.400;8.062;2024-03-02T13:17:20;12.40;94.00
8711;DHT22;4392;47.400;8.062;2024-03-02T13:22:18;12.30;93.60
8711;DHT22;4392;47.400;8.062;2024-03-02T13:24:44;12.20;93.30
8711;DHT22;4392;47.400;8.062;2024-03-02T13:27:09;12.20;93.40
8711;DHT22;4392;47.400;8.062;2024-03-02T13:29:38;12.30;93.70
8711;DHT22;4392;47.400;8.062;2024-03-02T13:32:07;12.50;93.60
8711;DHT22;4392;47.400;8.062;2024-03-02T13:34:32;12.60;93.10
8711;DHT22;4392;47.400;8.062;2024-03-02T13:36:58;12.70;93.30
8711;DHT22;4392;47.400;8.062;2024-03-02T13:39:26;12.80;93.00
8711;DHT22;4392;47.400;8.062;2024-03-02T13:41:52;12.70;92.50
8711;DHT22;4392;47.400;8.062;2024-03-02T13:44:22;12.80;92.80
8711;DHT22;4392;47.400;8.062;2024-03-02T13:46:49;12.60;91.80
8711;DHT22;4392;47.400;8.062;2024-03-02T13:49:14;12.60;92.20
8711;DHT22;4392;47.400;8.062;2024-03-02T13:51:40;12.60;93.20
8711;DHT22;4392;47.400;8.062;2024-03-02T13:54:06;12.60;93.20
8711;DHT22;4392;47.400;8.062;2024-03-02T13:56:31;12.50;91.90
8711;DHT22;4392;47.400;8.062;2024-03-02T13:58:58;12.40;92.10
8711;DHT22;4392;47.400;8.062;2024-03-02T14:01:24;12.30;92.10
8711;DHT22;4392;47.400;8.062;2024-03-02T14:03:50;12.30;92.60
8711;DHT22;4392;47.400;8.062;2024-03-02T14:06:16;12.30;92.10
8711;DHT22;4392;47.400;8.062;2024-03-02T14:08:42;12.30;92.30
8711;DHT22;4392;47.400;8.062;2024-03-02T14:11:10;12.40;91.70
8711;DHT22;4392;47.400;8.062;2024-03-02T14:13:42;12.20;90.50
8711;DHT22;4392;47.400;8.062;2024-03-02T14:16:10;12.10;90.90
8711;DHT22;4392;47.400;8.062;2024-03-02T14:18:36;12.10;91.00
8711;DHT22;4392;47.400;8.062;2024-03-02T14:21:01;12.20;91.30
8711;DHT22;4392;47.400;8.062;2024-03-02T14:23:29;12.30;91.40
8711;DHT22;4392;47.400;8.062;2024-03-02T14:25:55;12.50;91.00
8711;DHT22;4392;47.400;8.062;2024-03-02T14:28:23;12.50;90.80
8711;DHT22;4392;47.400;8.062;2024-03-02T14:30:49;12.50;90.90
8711;DHT22;4392;47.400;8.062;2024-03-02T14:33:16;12.50;90.70
8711;DHT22;4392;47.400;8.062;2024-03-02T14:35:42;12.60;91.10
8711;DHT22;4392;47.400;8.062;2024-03-02T14:38:07;12.70;90.60
8711;DHT22;4392;47.400;8.062;2024-03-02T14:40:33;12.50;90.00
8711;DHT22;4392;47.400;8.062;2024-03-02T14:42:59;12.60;90.20
8711;DHT22;4392;47.400;8.062;2024-03-02T14:45:24;12.70;90.40
8711;DHT22;4392;47.400;8.062;2024-03-02T14:47:51;12.70;90.10
8711;DHT22;4392;47.400;8.062;2024-03-02T14:50:17;12.50;90.20
8711;DHT22;4392;47.400;8.062;2024-03-02T14:52:44;12.60;90.40
8711;DHT22;4392;47.400;8.062;2024-03-02T14:55:11;12.60;89.90
8711;DHT22;4392;47.400;8.062;2024-03-02T14:57:36;12.50;89.60
8711;DHT22;4392;47.400;8.062;2024-03-02T15:00:04;12.60;90.10
8711;DHT22;4392;47.400;8.062;2024-03-02T15:02:33;12.50;87.20
8711;DHT22;4392;47.400;8.062;2024-03-02T15:04:59;12.40;87.40
8711;DHT22;4392;47.400;8.062;2024-03-02T15:07:25;12.40;88.30
8711;DHT22;4392;47.400;8.062;2024-03-02T15:09:50;12.50;86.60
8711;DHT22;4392;47.400;8.062;2024-03-02T15:12:16;12.50;86.70
8711;DHT22;4392;47.400;8.062;2024-03-02T15:14:43;12.60;87.20
8711;DHT22;4392;47.400;8.062;2024-03-02T15:17:15;12.70;87.10
8711;DHT22;4392;47.400;8.062;2024-03-02T15:19:45;12.60;86.10
8711;DHT22;4392;47.400;8.062;2024-03-02T15:22:11;12.70;88.20
8711;DHT22;4392;47.400;8.062;2024-03-02T15:24:37;12.80;87.20
8711;DHT22;4392;47.400;8.062;2024-03-02T15:27:04;12.80;87.60
8711;DHT22;4392;47.400;8.062;2024-03-02T15:29:34;12.90;88.10
8711;DHT22;4392;47.400;8.062;2024-03-02T15:32:00;12.90;87.90
8711;DHT22;4392;47.400;8.062;2024-03-02T15:34:25;13.10;86.10
8711;DHT22;4392;47.400;8.062;2024-03-02T15:36:53;13.20;85.60
8711;DHT22;4392;47.400;8.062;2024-03-02T15:39:19;13.40;85.00
8711;DHT22;4392;47.400;8.062;2024-03-02T15:41:45;13.60;82.40
8711;DHT22;4392;47.400;8.062;2024-03-02T15:44:11;13.70;82.20
8711;DHT22;4392;47.400;8.062;2024-03-02T15:46:36;13.90;81.80
8711;DHT22;4392;47.400;8.062;2024-03-02T15:49:02;14.00;81.60
8711;DHT22;4392;47.400;8.062;2024-03-02T15:51:29;14.20;81.40
8711;DHT22;4392;47.400;8.062;2024-03-02T15:53:54;14.10;81.10
8711;DHT22;4392;47.400;8.062;2024-03-02T15:56:20;14.10;81.70
8711;DHT22;4392;47.400;8.062;2024-03-02T15:58:46;14.10;82.20
8711;DHT22;4392;47.400;8.062;2024-03-02T16:01:12;14.10;81.30
8711;DHT22;4392;47.400;8.062;2024-03-02T16:03:38;14.00;81.00
8711;DHT22;4392;47.400;8.062;2024-03-02T16:06:04;14.00;80.50
8711;DHT22;4392;47.400;8.062;2024-03-02T16:08:30;14.00;80.00
8711;DHT22;4392;47.400;8.062;2024-03-02T16:10:56;14.00;80.60
8711;DHT22;4392;47.400;8.062;2024-03-02T16:13:22;13.90;81.10
8711;DHT22;4392;47.400;8.062;2024-03-02T16:15:48;13.90;81.00
8711;DHT22;4392;47.400;8.062;2024-03-02T16:18:14;14.00;80.60
8711;DHT22;4392;47.400;8.062;2024-03-02T16:20:39;14.00;81.00
8711;DHT22;4392;47.400;8.062;2024-03-02T16:23:06;14.10;81.00